An Run Da 2 — BHNX — position and weather

sailwx.info

Track history (hours):
 
Tides and Currents Weather Stations Pressure Air Temp Water Temp Dewpoint Dewpoint Depression Visibility Wind Speed Wind Dir Waves Ship Positions

An Run Da 2

Last reported at 2015-May-03 21:30 UTC. Time now 2015-May-05 06:12 UTC.
Position N 38°24' E 119°54'.

Length 147 m; draft 5 m.

Type: Cargo ship. MMSI: 413360230.

Date/timePositionNaut miles runAvg speedWind from/ knotsBaromVisibWave heightAir tempDewpointWater temp
2015-May-03 21:30N 38°24' E 119°54'11 9.7
2015-May-03 20:22N 38°16' E 120°03'810.0
2015-May-03 19:32N 38°11' E 120°12'1010.7
2015-May-03 18:33N 38°06' E 120°23'1111.1
2015-May-03 17:33N 38°02' E 120°37'1111.2
2015-May-03 16:33N 38°00' E 120°51'1211.6
2015-May-03 15:33N 37°58' E 121°05'1111.1
2015-May-03 14:33N 37°55' E 121°19'1110.6
2015-May-03 13:34N 37°51' E 121°31'1110.5
2015-May-03 12:33N 37°49' E 121°44'1110.6
2015-May-03 11:32N 37°46' E 121°57'1010.8
2015-May-03 10:34N 37°43' E 122°10'1111.2
2015-May-03 09:33N 37°41' E 122°24'1211.5
2015-May-03 08:29N 37°37' E 122°39'44410.8
2015-May-01 15:27N 30°15' E 121°50'1112.7
2015-May-01 14:32N 30°04' E 121°48'5 0.4
2015-May-01 02:32N 29°59' E 121°47'14 6.4
2015-May-01 00:26N 30°12' E 121°47'2 0.6
2015-Apr-30 21:19N 30°14' E 121°46'0 0.1
2015-Apr-30 19:31N 30°14' E 121°47'0 0.1
2015-Apr-30 18:31N 30°14' E 121°47'0 0.1
2015-Apr-30 17:25N 30°14' E 121°47'0 0.1
2015-Apr-30 15:31N 30°15' E 121°47'0 0.2
2015-Apr-30 14:27N 30°15' E 121°46'7 7.9
2015-Apr-30 13:33N 30°21' E 121°50'1010.3
2015-Apr-30 12:32N 30°27' E 122°00'1010.3
2015-Apr-30 11:32N 30°33' E 122°10'9 8.8
2015-Apr-30 10:30N 30°41' E 122°14'1010.0
2015-Apr-30 09:32N 30°50' E 122°19'1110.8
2015-Apr-30 08:33N 30°55' E 122°29'1510.5
2015-Apr-30 07:09N 31°10' E 122°31'710.9
2015-Apr-30 06:31N 31°17' E 122°32'1311.0
2015-Apr-30 05:22N 31°30' E 122°31'910.5
2015-Apr-30 04:32N 31°38' E 122°32'360 9.7
2015-Apr-28 15:18N 37°38' E 122°32'8 9.7
2015-Apr-28 14:29N 37°43' E 122°24'19 9.7
2015-Apr-28 12:32N 37°54' E 122°05'  
2015-Apr-24 16:29N 38°28' E 121°32'1110.9
2015-Apr-24 15:30N 38°31' E 121°45'1011.0
2015-Apr-24 14:34N 38°34' E 121°58'  
Track history (hours):
 
Tides and Currents Weather Stations Pressure Air Temp Water Temp Dewpoint Dewpoint Depression Visibility Wind Speed Wind Dir Waves Ship Positions

An Run Da 2

Last reported at 2015-May-03 21:30 UTC. Time now 2015-May-05 06:12 UTC.
Position N 38°24' E 119°54'.

Length 147 m; draft 5 m.

Type: Cargo ship. MMSI: 413360230.

Date/timePositionNaut miles runAvg speedWind from/ knotsBaromVisibWave heightAir tempDewpointWater temp
2015-May-03 21:30N 38°24' E 119°54'11 9.7
2015-May-03 20:22N 38°16' E 120°03'810.0
2015-May-03 19:32N 38°11' E 120°12'1010.7
2015-May-03 18:33N 38°06' E 120°23'1111.1
2015-May-03 17:33N 38°02' E 120°37'1111.2
2015-May-03 16:33N 38°00' E 120°51'1211.6
2015-May-03 15:33N 37°58' E 121°05'1111.1
2015-May-03 14:33N 37°55' E 121°19'1110.6
2015-May-03 13:34N 37°51' E 121°31'1110.5
2015-May-03 12:33N 37°49' E 121°44'1110.6
2015-May-03 11:32N 37°46' E 121°57'1010.8
2015-May-03 10:34N 37°43' E 122°10'1111.2
2015-May-03 09:33N 37°41' E 122°24'1211.5
2015-May-03 08:29N 37°37' E 122°39'44410.8
2015-May-01 15:27N 30°15' E 121°50'1112.7
2015-May-01 14:32N 30°04' E 121°48'5 0.4
2015-May-01 02:32N 29°59' E 121°47'14 6.4
2015-May-01 00:26N 30°12' E 121°47'2 0.6
2015-Apr-30 21:19N 30°14' E 121°46'0 0.1
2015-Apr-30 19:31N 30°14' E 121°47'0 0.1
2015-Apr-30 18:31N 30°14' E 121°47'0 0.1
2015-Apr-30 17:25N 30°14' E 121°47'0 0.1
2015-Apr-30 15:31N 30°15' E 121°47'0 0.2
2015-Apr-30 14:27N 30°15' E 121°46'7 7.9
2015-Apr-30 13:33N 30°21' E 121°50'1010.3
2015-Apr-30 12:32N 30°27' E 122°00'1010.3
2015-Apr-30 11:32N 30°33' E 122°10'9 8.8
2015-Apr-30 10:30N 30°41' E 122°14'1010.0
2015-Apr-30 09:32N 30°50' E 122°19'1110.8
2015-Apr-30 08:33N 30°55' E 122°29'1510.5
2015-Apr-30 07:09N 31°10' E 122°31'710.9
2015-Apr-30 06:31N 31°17' E 122°32'1311.0
2015-Apr-30 05:22N 31°30' E 122°31'910.5
2015-Apr-30 04:32N 31°38' E 122°32'360 9.7
2015-Apr-28 15:18N 37°38' E 122°32'8 9.7
2015-Apr-28 14:29N 37°43' E 122°24'19 9.7
2015-Apr-28 12:32N 37°54' E 122°05'  
2015-Apr-24 16:29N 38°28' E 121°32'1110.9
2015-Apr-24 15:30N 38°31' E 121°45'1011.0
2015-Apr-24 14:34N 38°34' E 121°58'  

Dump ship's entire track history